createdAt,value
2023-06-19T00:02:09.856Z,24.32
2023-06-19T00:04:36.806Z,24.18
2023-06-19T00:07:05.068Z,24.23
2023-06-19T00:09:33.113Z,24.17
2023-06-19T00:11:59.740Z,24.15
2023-06-19T00:14:26.419Z,24.01
2023-06-19T00:16:54.396Z,24.05
2023-06-19T00:19:20.985Z,23.95
2023-06-19T00:21:47.559Z,23.91
2023-06-19T00:24:14.273Z,23.91
2023-06-19T00:26:40.932Z,23.88
2023-06-19T00:29:07.525Z,23.82
2023-06-19T00:31:34.170Z,23.74
2023-06-19T00:34:02.124Z,23.74
2023-06-19T00:36:28.756Z,23.60
2023-06-19T00:38:55.378Z,23.54
2023-06-19T00:41:22.529Z,23.58
2023-06-19T00:43:49.234Z,23.58
2023-06-19T00:46:15.878Z,23.58
2023-06-19T00:48:42.644Z,23.56
2023-06-19T00:51:10.783Z,23.51
2023-06-19T00:53:38.124Z,23.49
2023-06-19T00:56:06.240Z,23.54
2023-06-19T00:58:33.292Z,23.55
2023-06-19T01:01:08.665Z,23.52
2023-06-19T01:03:36.462Z,23.48
2023-06-19T01:06:06.674Z,23.42
2023-06-19T01:08:52.255Z,23.40
2023-06-19T01:11:26.813Z,23.41
2023-06-19T01:13:57.132Z,23.37
2023-06-19T01:16:24.496Z,23.35
2023-06-19T01:18:51.551Z,23.35
2023-06-19T01:21:19.692Z,23.38
2023-06-19T01:23:47.725Z,23.42
2023-06-19T01:26:14.709Z,23.54
2023-06-19T01:28:43.103Z,23.57
2023-06-19T01:31:14.185Z,23.46
2023-06-19T01:33:43.680Z,23.44
2023-06-19T01:36:11.353Z,23.36
2023-06-19T01:38:39.851Z,23.25
2023-06-19T01:41:08.138Z,23.13
2023-06-19T01:43:35.616Z,23.04
2023-06-19T01:46:02.396Z,23.06
2023-06-19T01:48:29.157Z,23.00
2023-06-19T01:50:55.876Z,22.87
2023-06-19T01:53:22.563Z,22.81
2023-06-19T01:55:49.238Z,22.73
2023-06-19T01:58:17.321Z,22.62
2023-06-19T02:00:43.962Z,22.54
2023-06-19T02:03:10.787Z,22.49
2023-06-19T02:05:37.461Z,22.44
2023-06-19T02:08:04.233Z,22.44
2023-06-19T02:10:30.830Z,22.31
2023-06-19T02:12:57.632Z,22.28
2023-06-19T02:15:25.603Z,22.23
2023-06-19T02:17:52.203Z,22.36
2023-06-19T02:20:18.829Z,22.38
2023-06-19T02:22:45.489Z,22.36
2023-06-19T02:25:12.437Z,22.51
2023-06-19T02:27:39.135Z,22.50
2023-06-19T02:30:07.327Z,22.63
2023-06-19T02:32:35.485Z,22.70
2023-06-19T02:35:02.117Z,22.69
2023-06-19T02:37:28.753Z,22.79
2023-06-19T02:39:55.384Z,22.74
2023-06-19T02:42:22.038Z,22.87
2023-06-19T02:44:48.631Z,22.84
2023-06-19T02:47:15.242Z,22.95
2023-06-19T02:49:43.228Z,22.85
2023-06-19T02:52:09.849Z,22.91
2023-06-19T02:54:36.540Z,22.81
2023-06-19T02:57:03.500Z,22.87
2023-06-19T02:59:30.077Z,22.95
2023-06-19T03:01:58.796Z,22.86
2023-06-19T03:04:28.227Z,22.80
2023-06-19T03:06:57.291Z,22.82
2023-06-19T03:09:23.934Z,22.97
2023-06-19T03:11:50.619Z,23.04
2023-06-19T03:14:17.190Z,22.99
2023-06-19T03:16:43.886Z,22.87
2023-06-19T03:19:10.686Z,22.71
2023-06-19T03:21:37.333Z,22.72
2023-06-19T03:24:05.701Z,22.78
2023-06-19T03:26:32.334Z,22.63
2023-06-19T03:28:58.922Z,22.78
2023-06-19T03:31:25.505Z,22.76
2023-06-19T03:33:52.066Z,22.79
2023-06-19T03:36:18.730Z,22.74
2023-06-19T03:38:45.408Z,22.79
2023-06-19T03:41:13.378Z,22.82
2023-06-19T03:43:40.044Z,22.90
2023-06-19T03:46:06.710Z,22.92
2023-06-19T03:48:33.339Z,22.97
2023-06-19T03:51:00.542Z,23.07
2023-06-19T03:53:27.250Z,23.12
2023-06-19T03:55:56.301Z,23.04
2023-06-19T03:58:24.515Z,23.23
2023-06-19T04:00:51.947Z,23.35
2023-06-19T04:03:18.839Z,23.57
2023-06-19T04:05:45.441Z,23.53
2023-06-19T04:08:12.240Z,23.60
2023-06-19T04:10:38.854Z,23.50
2023-06-19T04:13:05.508Z,23.72
2023-06-19T04:15:33.762Z,23.84
2023-06-19T04:18:00.520Z,23.94
2023-06-19T04:20:27.583Z,23.88
2023-06-19T04:22:54.203Z,23.76
2023-06-19T04:25:20.814Z,23.69
2023-06-19T04:27:47.719Z,23.83
2023-06-19T04:30:14.416Z,23.69
2023-06-19T04:32:42.563Z,23.55
2023-06-19T04:35:09.875Z,23.32
2023-06-19T04:37:36.833Z,23.36
2023-06-19T04:40:03.949Z,23.31
2023-06-19T04:42:30.744Z,23.44
2023-06-19T04:44:57.496Z,23.47
2023-06-19T04:47:30.505Z,23.62
2023-06-19T04:50:01.750Z,23.52
2023-06-19T04:52:28.368Z,23.49
2023-06-19T04:54:55.180Z,23.64
2023-06-19T04:57:22.295Z,23.80
2023-06-19T04:59:48.969Z,24.23
2023-06-19T05:02:15.616Z,24.51
2023-06-19T05:04:45.148Z,24.54
2023-06-19T05:07:13.240Z,24.50
2023-06-19T05:09:39.821Z,24.44
2023-06-19T05:12:07.156Z,24.52
2023-06-19T05:14:33.853Z,24.54
2023-06-19T05:17:00.738Z,24.36
2023-06-19T05:19:27.386Z,24.31
2023-06-19T05:21:54.020Z,24.46
2023-06-19T05:24:26.962Z,24.52
2023-06-19T05:26:53.603Z,24.61
2023-06-19T05:29:20.174Z,24.68
2023-06-19T05:31:54.911Z,24.65
2023-06-19T05:34:21.530Z,24.98
2023-06-19T05:36:48.107Z,24.75
2023-06-19T05:39:14.773Z,24.80
2023-06-19T05:41:42.821Z,25.29
2023-06-19T05:44:09.448Z,25.66
2023-06-19T05:46:35.918Z,25.81
2023-06-19T05:49:07.803Z,26.03
2023-06-19T05:51:34.410Z,26.15
2023-06-19T05:54:00.856Z,26.89
2023-06-19T05:56:27.309Z,27.31
2023-06-19T05:58:55.244Z,27.58
2023-06-19T06:01:25.925Z,27.53
2023-06-19T06:03:56.272Z,27.60
2023-06-19T06:06:24.667Z,27.65
2023-06-19T06:08:51.330Z,27.71
2023-06-19T06:11:18.026Z,27.81
2023-06-19T06:13:44.522Z,28.16
2023-06-19T06:16:12.383Z,28.20
2023-06-19T06:18:39.049Z,28.46
2023-06-19T06:21:05.657Z,28.53
2023-06-19T06:23:32.521Z,28.16
2023-06-19T06:25:59.178Z,28.02
2023-06-19T06:28:25.854Z,27.90
2023-06-19T06:30:52.444Z,27.92
2023-06-19T06:33:20.434Z,27.99
2023-06-19T06:35:47.070Z,28.02
2023-06-19T06:38:13.825Z,28.25
2023-06-19T06:40:40.801Z,28.07
2023-06-19T06:43:07.430Z,27.53
2023-06-19T06:45:34.127Z,27.39
2023-06-19T06:48:00.990Z,27.42
2023-06-19T06:50:29.054Z,27.33
2023-06-19T06:52:55.839Z,27.27
2023-06-19T06:55:22.501Z,26.76
2023-06-19T06:57:49.153Z,26.47
2023-06-19T07:00:16.364Z,26.24
2023-06-19T07:02:42.954Z,26.40
2023-06-19T07:05:10.375Z,26.65
2023-06-19T07:07:38.732Z,26.70
2023-06-19T07:10:06.328Z,26.41
2023-06-19T07:12:32.949Z,26.19
2023-06-19T07:14:59.537Z,26.39
2023-06-19T07:17:26.236Z,26.36
2023-06-19T07:19:52.912Z,26.10
2023-06-19T07:22:19.546Z,26.08
2023-06-19T07:24:48.788Z,26.14
2023-06-19T07:27:15.395Z,26.36
2023-06-19T07:29:42.010Z,26.67
2023-06-19T07:32:08.792Z,26.45
2023-06-19T07:34:35.429Z,26.65
2023-06-19T07:37:02.233Z,26.92
2023-06-19T07:39:28.847Z,27.52
2023-06-19T07:41:57.275Z,28.25
2023-06-19T07:44:23.992Z,28.44
2023-06-19T07:46:50.618Z,28.62
2023-06-19T07:49:17.338Z,28.32
2023-06-19T07:51:44.273Z,28.20
2023-06-19T07:54:10.871Z,27.76
2023-06-19T07:56:37.495Z,27.58
2023-06-19T07:59:06.310Z,26.90
2023-06-19T08:01:32.980Z,26.33
2023-06-19T08:03:59.962Z,25.81
2023-06-19T08:06:26.634Z,25.41
2023-06-19T08:08:53.407Z,25.48
2023-06-19T08:11:20.134Z,25.51
2023-06-19T08:13:46.743Z,26.05
2023-06-19T08:16:15.310Z,26.45
2023-06-19T08:18:41.968Z,27.12
2023-06-19T08:21:08.643Z,27.76
2023-06-19T08:23:35.399Z,28.48
2023-06-19T08:26:02.642Z,29.05
2023-06-19T08:28:29.242Z,29.58
2023-06-19T08:30:55.907Z,29.87
2023-06-19T08:33:23.957Z,30.34
2023-06-19T08:35:52.625Z,29.98
2023-06-19T08:38:19.502Z,30.65
2023-06-19T08:40:46.492Z,31.15
2023-06-19T08:43:16.141Z,31.49
2023-06-19T08:45:42.679Z,31.44
2023-06-19T08:48:14.674Z,31.69
2023-06-19T08:50:43.783Z,31.67
2023-06-19T08:53:10.392Z,31.90
2023-06-19T08:55:37.076Z,32.04
2023-06-19T08:58:03.847Z,32.39
2023-06-19T09:00:31.174Z,32.51
2023-06-19T09:03:12.265Z,32.79
2023-06-19T09:05:44.115Z,32.07
2023-06-19T09:08:14.425Z,32.00
2023-06-19T09:10:41.126Z,31.08
2023-06-19T09:13:07.726Z,31.83
2023-06-19T09:15:35.972Z,31.58
2023-06-19T09:18:07.220Z,31.51
2023-06-19T09:20:35.107Z,31.83
2023-06-19T09:23:03.102Z,31.55
2023-06-19T09:25:29.881Z,31.67
2023-06-19T09:27:56.886Z,31.75
2023-06-19T09:30:24.170Z,32.02
2023-06-19T09:32:51.008Z,32.06
2023-06-19T09:35:17.836Z,31.80
2023-06-19T09:37:46.604Z,31.53
2023-06-19T09:40:14.642Z,31.51
2023-06-19T09:42:43.241Z,31.99
2023-06-19T09:45:12.453Z,32.18
2023-06-19T09:47:43.857Z,32.57
2023-06-19T09:50:14.011Z,31.96
2023-06-19T09:52:41.441Z,32.30
2023-06-19T09:55:09.153Z,32.28
2023-06-19T09:57:38.312Z,32.69
2023-06-19T10:00:07.236Z,32.75
2023-06-19T10:02:34.241Z,32.80
2023-06-19T10:05:01.347Z,32.95
2023-06-19T10:07:34.416Z,32.09
2023-06-19T10:10:02.871Z,31.29
2023-06-19T10:12:42.142Z,31.80
2023-06-19T10:15:10.771Z,31.82
2023-06-19T10:17:37.817Z,31.83
2023-06-19T10:20:05.876Z,31.45
2023-06-19T10:22:32.743Z,31.23
2023-06-19T10:24:59.640Z,30.89
2023-06-19T10:27:26.596Z,30.92
2023-06-19T10:30:04.569Z,31.23
2023-06-19T10:32:42.047Z,31.40
2023-06-19T10:35:12.284Z,31.17
2023-06-19T10:37:38.873Z,30.92
2023-06-19T10:40:06.950Z,30.27
2023-06-19T10:42:33.567Z,30.34
2023-06-19T10:45:03.535Z,30.13
2023-06-19T10:47:30.383Z,30.41
2023-06-19T10:49:58.067Z,30.36
2023-06-19T10:52:25.536Z,29.99
2023-06-19T10:54:54.467Z,30.19
2023-06-19T10:57:27.889Z,30.53
2023-06-19T10:59:54.618Z,30.67
2023-06-19T11:02:23.981Z,30.77
2023-06-19T11:04:53.597Z,31.02
2023-06-19T11:07:20.345Z,31.30
2023-06-19T11:09:46.988Z,31.85
2023-06-19T11:12:20.511Z,31.75
2023-06-19T11:14:48.497Z,31.63
2023-06-19T11:17:15.491Z,32.13
2023-06-19T11:19:43.585Z,32.21
2023-06-19T11:22:10.293Z,32.47
2023-06-19T11:24:37.325Z,32.39
2023-06-19T11:27:04.460Z,32.70
2023-06-19T11:29:31.805Z,32.51
2023-06-19T11:32:07.446Z,32.95
2023-06-19T11:34:35.669Z,33.09
2023-06-19T11:37:03.903Z,33.02
2023-06-19T11:39:30.578Z,33.07
2023-06-19T11:41:59.980Z,33.13
2023-06-19T11:44:26.652Z,33.15
2023-06-19T11:46:57.851Z,32.65
2023-06-19T11:49:24.685Z,32.69
2023-06-19T11:51:53.246Z,32.36
2023-06-19T11:54:21.244Z,32.33
2023-06-19T11:56:53.655Z,32.16
2023-06-19T11:59:20.232Z,32.18
2023-06-19T12:01:46.866Z,32.05
2023-06-19T12:04:13.609Z,31.98
2023-06-19T12:06:40.385Z,32.08
2023-06-19T12:09:07.277Z,32.04
2023-06-19T12:11:35.347Z,31.84
2023-06-19T12:14:05.080Z,31.80
2023-06-19T12:16:31.774Z,31.84
2023-06-19T12:18:58.465Z,31.83
2023-06-19T12:21:33.644Z,31.90
2023-06-19T12:24:03.144Z,32.06
2023-06-19T12:26:30.051Z,32.08
2023-06-19T12:28:58.022Z,31.84
2023-06-19T12:31:24.779Z,31.96
2023-06-19T12:33:51.443Z,32.01
2023-06-19T12:36:18.188Z,31.98
2023-06-19T12:38:47.501Z,32.74
2023-06-19T12:41:15.746Z,32.66
2023-06-19T12:43:42.464Z,32.89
2023-06-19T12:46:10.499Z,33.04
2023-06-19T12:48:43.093Z,33.02
2023-06-19T12:51:09.738Z,32.94
2023-06-19T12:53:36.549Z,33.44
2023-06-19T12:56:07.184Z,33.64
2023-06-19T12:58:37.243Z,33.80
2023-06-19T13:01:03.807Z,33.79
2023-06-19T13:03:31.835Z,34.24
2023-06-19T13:05:58.848Z,34.02
2023-06-19T13:08:25.533Z,34.40
2023-06-19T13:10:52.266Z,34.31
2023-06-19T13:13:19.062Z,34.40
2023-06-19T13:15:45.748Z,34.38
2023-06-19T13:18:12.553Z,33.96
2023-06-19T13:20:40.610Z,33.53
2023-06-19T13:23:07.258Z,33.42
2023-06-19T13:25:33.889Z,33.35
2023-06-19T13:28:00.523Z,33.07
2023-06-19T13:30:27.216Z,33.08
2023-06-19T13:32:54.060Z,32.65
2023-06-19T13:35:20.763Z,32.63
2023-06-19T13:37:48.876Z,32.55
2023-06-19T13:40:15.494Z,32.62
2023-06-19T13:42:42.101Z,32.64
2023-06-19T13:45:09.901Z,32.54
2023-06-19T13:47:37.018Z,32.66
2023-06-19T13:50:04.316Z,32.23
2023-06-19T13:52:30.909Z,31.95
2023-06-19T13:54:58.904Z,32.11
2023-06-19T13:57:25.565Z,32.10
2023-06-19T13:59:52.087Z,31.81
2023-06-19T14:02:18.805Z,32.00
2023-06-19T14:04:45.414Z,32.10
2023-06-19T14:07:12.039Z,32.00
2023-06-19T14:09:38.686Z,31.96
2023-06-19T14:12:07.521Z,31.77
2023-06-19T14:14:34.181Z,31.82
2023-06-19T14:17:00.850Z,31.90
2023-06-19T14:19:27.572Z,31.60
2023-06-19T14:21:54.259Z,31.70
2023-06-19T14:24:21.021Z,31.60
2023-06-19T14:26:47.793Z,31.88
2023-06-19T14:29:15.751Z,32.13
2023-06-19T14:31:42.385Z,32.09
2023-06-19T14:34:09.006Z,32.00
2023-06-19T14:36:35.651Z,31.94
2023-06-19T14:39:02.289Z,31.61
2023-06-19T14:41:28.931Z,31.57
2023-06-19T14:43:55.530Z,31.52
2023-06-19T14:46:37.309Z,31.50
2023-06-19T14:49:04.675Z,31.46
2023-06-19T14:51:31.276Z,31.57
2023-06-19T14:53:57.946Z,31.32
2023-06-19T14:56:24.561Z,31.34
2023-06-19T14:58:51.206Z,31.29
2023-06-19T15:01:17.909Z,31.41
2023-06-19T15:03:46.039Z,31.36
2023-06-19T15:06:12.762Z,31.45
2023-06-19T15:08:39.410Z,31.42
2023-06-19T15:11:06.214Z,31.23
2023-06-19T15:13:32.838Z,31.27
2023-06-19T15:15:59.468Z,31.39
2023-06-19T15:18:26.929Z,31.43
2023-06-19T15:20:55.082Z,31.36
2023-06-19T15:23:21.648Z,30.88
2023-06-19T15:25:48.249Z,30.75
2023-06-19T15:28:14.914Z,30.94
2023-06-19T15:30:41.574Z,31.06
2023-06-19T15:33:08.233Z,30.87
2023-06-19T15:35:34.878Z,30.83
2023-06-19T15:38:02.866Z,30.86
2023-06-19T15:40:29.922Z,30.88
2023-06-19T15:42:56.545Z,30.88
2023-06-19T15:45:23.819Z,30.96
2023-06-19T15:47:50.993Z,30.88
2023-06-19T15:50:17.970Z,30.67
2023-06-19T15:52:44.568Z,30.76
2023-06-19T15:55:12.739Z,30.76
2023-06-19T15:57:39.356Z,30.71
2023-06-19T16:00:07.378Z,30.68
2023-06-19T16:02:34.089Z,30.73
2023-06-19T16:05:00.790Z,30.73
2023-06-19T16:07:27.390Z,30.91
2023-06-19T16:09:55.614Z,31.11
2023-06-19T16:12:24.154Z,31.13
2023-06-19T16:14:50.838Z,31.19
2023-06-19T16:17:18.255Z,31.21
2023-06-19T16:19:44.880Z,30.92
2023-06-19T16:22:11.518Z,30.88
2023-06-19T16:25:27.377Z,30.87
2023-06-19T16:27:55.426Z,30.84
2023-06-19T16:30:27.496Z,30.87
2023-06-19T16:33:09.533Z,30.77
2023-06-19T16:35:40.965Z,30.76
2023-06-19T16:39:13.598Z,30.76
2023-06-19T16:41:23.048Z,30.60
2023-06-19T16:43:51.169Z,30.66
2023-06-19T16:46:24.601Z,30.79
2023-06-19T16:48:55.016Z,30.70
2023-06-19T16:51:29.708Z,30.71
2023-06-19T16:53:59.116Z,30.67
2023-06-19T16:59:49.665Z,30.52
2023-06-19T17:02:33.158Z,30.37
2023-06-19T17:05:00.092Z,30.25
2023-06-19T17:07:41.552Z,30.31
2023-06-19T17:13:17.279Z,30.27
2023-06-19T17:15:50.907Z,30.13
2023-06-19T17:18:17.496Z,30.08
2023-06-19T17:20:50.239Z,30.11
2023-06-19T17:23:16.871Z,30.09
2023-06-19T17:25:45.130Z,29.99
2023-06-19T17:28:11.737Z,30.04
2023-06-19T17:30:38.423Z,29.92
2023-06-19T17:33:06.539Z,29.85
2023-06-19T17:35:33.192Z,29.66
2023-06-19T17:37:59.819Z,29.24
2023-06-19T17:40:28.200Z,29.23
2023-06-19T17:42:54.872Z,29.16
2023-06-19T17:45:21.655Z,28.82
2023-06-19T17:47:48.438Z,28.89
2023-06-19T17:50:16.718Z,28.93
2023-06-19T17:52:43.563Z,28.80
2023-06-19T17:55:10.751Z,28.66
2023-06-19T17:57:37.792Z,28.43
2023-06-19T18:00:05.975Z,28.40
2023-06-19T18:02:32.870Z,28.34
2023-06-19T18:04:59.825Z,28.24
2023-06-19T18:07:27.829Z,28.09
2023-06-19T18:09:54.548Z,28.30
2023-06-19T18:12:21.157Z,28.39
2023-06-19T18:14:48.079Z,28.37
2023-06-19T18:17:15.159Z,28.38
2023-06-19T18:19:42.213Z,28.32
2023-06-19T18:22:09.021Z,28.49
2023-06-19T18:24:37.219Z,28.49
2023-06-19T18:27:06.955Z,28.44
2023-06-19T18:29:35.103Z,28.43
2023-06-19T18:32:01.785Z,28.39
2023-06-19T18:34:28.416Z,28.38
2023-06-19T18:36:55.082Z,28.40
2023-06-19T18:39:22.222Z,28.17
2023-06-19T18:41:50.223Z,28.21
2023-06-19T18:44:16.894Z,28.16
2023-06-19T18:46:44.166Z,28.18
2023-06-19T18:49:10.920Z,27.99
2023-06-19T18:51:37.544Z,27.90
2023-06-19T18:54:04.387Z,27.72
2023-06-19T18:56:31.018Z,27.67
2023-06-19T18:58:59.007Z,27.69
2023-06-19T19:01:25.724Z,27.62
2023-06-19T19:03:52.419Z,27.57
2023-06-19T19:06:19.232Z,27.47
2023-06-19T19:08:46.392Z,27.37
2023-06-19T19:11:13.049Z,27.22
2023-06-19T19:13:39.747Z,27.23
2023-06-19T19:16:07.717Z,27.04
2023-06-19T19:18:34.585Z,27.12
2023-06-19T19:21:01.408Z,27.01
2023-06-19T19:23:28.082Z,26.97
2023-06-19T19:25:54.794Z,26.93
2023-06-19T19:28:21.451Z,26.83
2023-06-19T19:30:48.520Z,26.62
2023-06-19T19:33:16.723Z,26.59
2023-06-19T19:35:43.572Z,26.53
2023-06-19T19:38:10.400Z,26.50
2023-06-19T19:40:37.024Z,26.47
2023-06-19T19:43:03.678Z,26.42
2023-06-19T19:45:30.304Z,26.26
2023-06-19T19:47:57.010Z,26.25
2023-06-19T19:50:25.264Z,26.11
2023-06-19T19:52:52.075Z,26.00
2023-06-19T19:55:18.710Z,26.07
2023-06-19T19:57:45.325Z,26.05
2023-06-19T20:00:13.259Z,25.98
2023-06-19T20:02:39.965Z,25.94
2023-06-19T20:05:07.441Z,25.88
2023-06-19T20:07:35.410Z,25.75
2023-06-19T20:10:02.118Z,25.70
2023-06-19T20:12:28.694Z,25.80
2023-06-19T20:14:55.292Z,25.72
2023-06-19T20:17:21.977Z,25.75
2023-06-19T20:19:48.649Z,25.64
2023-06-19T20:22:15.376Z,25.60
2023-06-19T20:24:43.430Z,25.64
2023-06-19T20:27:10.088Z,25.68
2023-06-19T20:29:36.723Z,25.59
2023-06-19T20:32:12.524Z,25.59
2023-06-19T20:37:19.615Z,25.56
2023-06-19T20:39:49.155Z,25.55
2023-06-19T20:42:15.801Z,25.59
2023-06-19T20:44:42.465Z,25.52
2023-06-19T20:47:09.139Z,25.36
2023-06-19T20:49:42.122Z,25.42
2023-06-19T20:52:08.772Z,25.62
2023-06-19T20:54:35.428Z,25.55
2023-06-19T20:57:08.082Z,25.47
2023-06-19T20:59:36.264Z,25.26
2023-06-19T21:02:03.486Z,25.29
2023-06-19T21:04:30.896Z,25.37
2023-06-19T21:06:57.933Z,25.33
2023-06-19T21:09:24.540Z,25.46
2023-06-19T21:11:51.177Z,25.46
2023-06-19T21:14:19.413Z,25.40
2023-06-19T21:16:46.233Z,25.17
2023-06-19T21:19:13.082Z,25.25
2023-06-19T21:21:39.727Z,25.30
2023-06-19T21:24:06.756Z,25.23
2023-06-19T21:26:33.388Z,25.11
2023-06-19T21:29:00.247Z,24.80
2023-06-19T21:31:28.266Z,24.67
2023-06-19T21:33:54.883Z,24.49
2023-06-19T21:36:21.482Z,24.22
2023-06-19T21:38:48.103Z,24.25
2023-06-19T21:41:14.863Z,24.47
2023-06-19T21:43:41.531Z,24.48
2023-06-19T21:46:08.212Z,24.28
2023-06-19T21:48:36.258Z,24.37
2023-06-19T21:51:02.896Z,24.43
2023-06-19T21:53:29.542Z,24.56
2023-06-19T21:55:56.140Z,24.47
2023-06-19T21:58:22.731Z,24.44
2023-06-19T22:00:49.375Z,24.49
2023-06-19T22:03:16.273Z,24.56
2023-06-19T22:05:44.515Z,24.65
2023-06-19T22:08:11.163Z,24.57
2023-06-19T22:10:37.920Z,24.67
2023-06-19T22:13:04.579Z,24.54
2023-06-19T22:15:31.462Z,24.65
2023-06-19T22:17:58.384Z,24.60
2023-06-19T22:20:25.793Z,24.26
2023-06-19T22:22:53.958Z,24.38
2023-06-19T22:25:20.618Z,24.35
2023-06-19T22:27:47.330Z,24.38
2023-06-19T22:30:15.636Z,24.49
2023-06-19T22:32:42.884Z,24.25
2023-06-19T22:35:09.719Z,24.32
2023-06-19T22:37:36.817Z,24.45
2023-06-19T22:40:05.878Z,24.40
2023-06-19T22:42:32.574Z,24.38
2023-06-19T22:44:59.163Z,24.37
2023-06-19T22:47:25.765Z,24.39
2023-06-19T22:49:52.622Z,24.40
2023-06-19T22:52:19.247Z,24.44
2023-06-19T22:54:45.957Z,24.32
2023-06-19T22:57:13.971Z,24.48
2023-06-19T22:59:40.562Z,24.26
2023-06-19T23:02:07.510Z,24.24
2023-06-19T23:04:34.347Z,24.43
2023-06-19T23:07:00.923Z,24.49
2023-06-19T23:09:27.876Z,24.50
2023-06-19T23:11:54.377Z,24.55
2023-06-19T23:14:22.444Z,24.56
2023-06-19T23:16:49.045Z,24.55
2023-06-19T23:19:15.976Z,24.65
2023-06-19T23:21:42.568Z,24.49
2023-06-19T23:24:09.454Z,24.57
2023-06-19T23:26:36.057Z,24.37
2023-06-19T23:29:03.323Z,24.16
2023-06-19T23:31:31.311Z,24.26
2023-06-19T23:33:57.918Z,24.26
2023-06-19T23:36:24.675Z,24.32
2023-06-19T23:38:51.285Z,24.37
2023-06-19T23:41:17.944Z,24.53
2023-06-19T23:43:44.521Z,24.47
2023-06-19T23:46:11.229Z,24.38
2023-06-19T23:48:39.261Z,24.42
2023-06-19T23:51:06.071Z,24.38
2023-06-19T23:53:32.827Z,24.35
2023-06-19T23:55:59.915Z,24.35
2023-06-19T23:58:26.494Z,24.45
